GMA14P EGLF-EDDH
Flight info
| Callsign | GMA14P |
|---|---|
| Flight time | 1h 12m |
| Altitude | 39000 |
| Route | HAZEL L620 SAM Q41 PEPIS DCT OCK UM185 KOBBI M197 BRAIN Q295 SOMVA DCT MAVAS DCT PETIK DCT EEL DCT GASTU DCT OSTOR/N0418F230 T904 RIBSO RIBSO7A |
| Aircraft | B738/M-SDE2E3FGHIRWXY/LB1 |
Departure
| Time | 2026-04-20 19:52 |
|---|---|
| Airport | Farnborough Airport (EGLF) |
Arrival
| Time | 2026-04-20 21:05 |
|---|---|
| Airport | Hamburg Helmut Schmidt Airport (EDDH) |
| Time | Latitude | Longitude | Altitude | Speed | Heading |
|---|---|---|---|---|---|
| 2026-04-20 19:37 | 51.28064 | -0.77920 | 223 ft | 0 kts | 125° |
| 2026-04-20 19:44 | 51.28061 | -0.77914 | 223 ft | 3 kts | 125° |
| 2026-04-20 19:44 | 51.28035 | -0.77873 | 222 ft | 7 kts | 164° |
| 2026-04-20 19:44 | 51.27970 | -0.77882 | 223 ft | 11 kts | 186° |
| 2026-04-20 19:44 | 51.27901 | -0.77937 | 223 ft | 12 kts | 216° |
| 2026-04-20 19:45 | 51.27835 | -0.78013 | 223 ft | 12 kts | 215° |
| 2026-04-20 19:45 | 51.27766 | -0.78090 | 223 ft | 12 kts | 215° |
| 2026-04-20 19:45 | 51.27697 | -0.78169 | 225 ft | 12 kts | 216° |
| 2026-04-20 19:45 | 51.27648 | -0.78253 | 225 ft | 11 kts | 236° |
| 2026-04-20 19:46 | 51.27578 | -0.78353 | 223 ft | 16 kts | 219° |
| 2026-04-20 19:46 | 51.27487 | -0.78483 | 223 ft | 19 kts | 221° |
| 2026-04-20 19:46 | 51.27386 | -0.78624 | 224 ft | 19 kts | 220° |
| 2026-04-20 19:46 | 51.27301 | -0.78777 | 228 ft | 18 kts | 241° |
| 2026-04-20 19:47 | 51.27247 | -0.78944 | 230 ft | 16 kts | 243° |
| 2026-04-20 19:47 | 51.27197 | -0.79095 | 229 ft | 14 kts | 242° |
| 2026-04-20 19:47 | 51.27174 | -0.79150 | 228 ft | 0 kts | 222° |
| 2026-04-20 19:47 | 51.27174 | -0.79151 | 228 ft | 0 kts | 221° |
| 2026-04-20 19:50 | 51.27145 | -0.79168 | 227 ft | 9 kts | 183° |
| 2026-04-20 19:50 | 51.27095 | -0.79100 | 224 ft | 10 kts | 79° |
| 2026-04-20 19:51 | 51.27121 | -0.79016 | 225 ft | 5 kts | 61° |
| 2026-04-20 19:51 | 51.27125 | -0.79003 | 225 ft | 0 kts | 61° |
| 2026-04-20 19:51 | 51.27173 | -0.78860 | 227 ft | 49 kts | 62° |
| 2026-04-20 19:52 | 51.27476 | -0.77953 | 236 ft | 130 kts | 61° |
| 2026-04-20 19:52 | 51.27929 | -0.76572 | 957 ft | 139 kts | 63° |
| 2026-04-20 19:52 | 51.28356 | -0.75257 | 2116 ft | 132 kts | 63° |
| 2026-04-20 19:52 | 51.28798 | -0.73877 | 2748 ft | 156 kts | 63° |
| 2026-04-20 19:53 | 51.29347 | -0.72151 | 2994 ft | 192 kts | 63° |
| 2026-04-20 19:53 | 51.29873 | -0.70155 | 2989 ft | 198 kts | 78° |
| 2026-04-20 19:53 | 51.29816 | -0.67941 | 2986 ft | 206 kts | 102° |
| 2026-04-20 19:53 | 51.29204 | -0.65874 | 2981 ft | 214 kts | 130° |
| 2026-04-20 19:54 | 51.27941 | -0.64567 | 3011 ft | 220 kts | 148° |
| 2026-04-20 19:54 | 51.26549 | -0.63518 | 2993 ft | 226 kts | 161° |
| 2026-04-20 19:54 | 51.24981 | -0.63608 | 2994 ft | 231 kts | 198° |
| 2026-04-20 19:54 | 51.23742 | -0.65180 | 3004 ft | 231 kts | 237° |
| 2026-04-20 19:55 | 51.22992 | -0.67404 | 3139 ft | 229 kts | 243° |
| 2026-04-20 19:55 | 51.22250 | -0.69718 | 3544 ft | 237 kts | 243° |
| 2026-04-20 19:55 | 51.21502 | -0.72020 | 4697 ft | 231 kts | 243° |
| 2026-04-20 19:55 | 51.20742 | -0.74272 | 5778 ft | 231 kts | 239° |
| 2026-04-20 19:56 | 51.19844 | -0.76413 | 6768 ft | 234 kts | 237° |
| 2026-04-20 19:56 | 51.18897 | -0.78542 | 7706 ft | 237 kts | 236° |
| 2026-04-20 19:56 | 51.17937 | -0.80696 | 8657 ft | 239 kts | 237° |
| 2026-04-20 19:56 | 51.16974 | -0.82875 | 9598 ft | 242 kts | 237° |
| 2026-04-20 19:57 | 51.16002 | -0.85087 | 10101 ft | 244 kts | 237° |
| 2026-04-20 19:57 | 51.14977 | -0.87433 | 10270 ft | 277 kts | 237° |
| 2026-04-20 19:57 | 51.13839 | -0.90036 | 10280 ft | 290 kts | 237° |
| 2026-04-20 19:57 | 51.12701 | -0.92649 | 10271 ft | 292 kts | 238° |
| 2026-04-20 19:58 | 51.11934 | -0.95586 | 10275 ft | 287 kts | 263° |
| 2026-04-20 19:58 | 51.12071 | -0.98735 | 10655 ft | 289 kts | 290° |
| 2026-04-20 19:58 | 51.13038 | -1.01460 | 11766 ft | 282 kts | 313° |
| 2026-04-20 19:58 | 51.14602 | -1.03295 | 12804 ft | 283 kts | 336° |
| 2026-04-20 19:59 | 51.16544 | -1.03870 | 13785 ft | 291 kts | 1° |
| 2026-04-20 19:59 | 51.18511 | -1.03005 | 14707 ft | 300 kts | 26° |
| 2026-04-20 19:59 | 51.20133 | -1.00858 | 15646 ft | 311 kts | 47° |
| 2026-04-20 19:59 | 51.21209 | -0.97812 | 16545 ft | 323 kts | 65° |
| 2026-04-20 20:00 | 51.21903 | -0.94359 | 17420 ft | 331 kts | 71° |
| 2026-04-20 20:00 | 51.22490 | -0.90756 | 18283 ft | 339 kts | 72° |
| 2026-04-20 20:00 | 51.23075 | -0.87076 | 19064 ft | 346 kts | 71° |
| 2026-04-20 20:00 | 51.23689 | -0.83330 | 19810 ft | 352 kts | 70° |
| 2026-04-20 20:01 | 51.24335 | -0.79534 | 20554 ft | 358 kts | 70° |
| 2026-04-20 20:01 | 51.25011 | -0.75665 | 21287 ft | 365 kts | 69° |
| 2026-04-20 20:01 | 51.25719 | -0.71686 | 21628 ft | 384 kts | 69° |
| 2026-04-20 20:01 | 51.26470 | -0.67495 | 21793 ft | 406 kts | 69° |
| 2026-04-20 20:02 | 51.27264 | -0.63044 | 21944 ft | 427 kts | 69° |
| 2026-04-20 20:02 | 51.27940 | -0.59236 | 22065 ft | 442 kts | 69° |
| 2026-04-20 20:02 | 51.28794 | -0.54421 | 22183 ft | 459 kts | 70° |
| 2026-04-20 20:02 | 51.29805 | -0.49518 | 22277 ft | 469 kts | 60° |
| 2026-04-20 20:03 | 51.31597 | -0.45171 | 22478 ft | 468 kts | 42° |
| 2026-04-20 20:03 | 51.34042 | -0.41838 | 22889 ft | 459 kts | 25° |
| 2026-04-20 20:03 | 51.36870 | -0.39606 | 23446 ft | 452 kts | 17° |
| 2026-04-20 20:03 | 51.39761 | -0.37541 | 23927 ft | 456 kts | 17° |
| 2026-04-20 20:04 | 51.42657 | -0.35426 | 24289 ft | 460 kts | 17° |
| 2026-04-20 20:04 | 51.45565 | -0.33253 | 24656 ft | 463 kts | 18° |
| 2026-04-20 20:04 | 51.48487 | -0.31036 | 25037 ft | 466 kts | 18° |
| 2026-04-20 20:04 | 51.51422 | -0.28790 | 25403 ft | 469 kts | 18° |
| 2026-04-20 20:05 | 51.54377 | -0.26521 | 25754 ft | 471 kts | 18° |
| 2026-04-20 20:05 | 51.57335 | -0.24248 | 26103 ft | 473 kts | 18° |
| 2026-04-20 20:05 | 51.60305 | -0.21966 | 26448 ft | 475 kts | 18° |
| 2026-04-20 20:05 | 51.63195 | -0.19746 | 26773 ft | 475 kts | 18° |
| 2026-04-20 20:06 | 51.65390 | -0.17837 | 27008 ft | 485 kts | 26° |
| 2026-04-20 20:06 | 51.67869 | -0.14138 | 27388 ft | 503 kts | 44° |
| 2026-04-20 20:06 | 51.69720 | -0.09309 | 27823 ft | 517 kts | 61° |
| 2026-04-20 20:06 | 51.70794 | -0.03820 | 28253 ft | 523 kts | 70° |
| 2026-04-20 20:07 | 51.71648 | 0.01886 | 28640 ft | 525 kts | 72° |
| 2026-04-20 20:07 | 51.72455 | 0.07646 | 28968 ft | 526 kts | 72° |
| 2026-04-20 20:07 | 51.73263 | 0.13384 | 29367 ft | 525 kts | 72° |
| 2026-04-20 20:07 | 51.74096 | 0.19100 | 29802 ft | 523 kts | 71° |
| 2026-04-20 20:08 | 51.74955 | 0.24820 | 30244 ft | 522 kts | 71° |
| 2026-04-20 20:08 | 51.75822 | 0.30484 | 30728 ft | 518 kts | 71° |
| 2026-04-20 20:08 | 51.76683 | 0.36087 | 31347 ft | 512 kts | 71° |
| 2026-04-20 20:08 | 51.77532 | 0.41627 | 31970 ft | 506 kts | 71° |
| 2026-04-20 20:09 | 51.78372 | 0.47131 | 32575 ft | 502 kts | 72° |
| 2026-04-20 20:09 | 51.79200 | 0.52577 | 33117 ft | 499 kts | 72° |
| 2026-04-20 20:09 | 51.80020 | 0.58004 | 33573 ft | 497 kts | 72° |
| 2026-04-20 20:09 | 51.80843 | 0.63438 | 34016 ft | 496 kts | 72° |
| 2026-04-20 20:10 | 51.81897 | 0.68698 | 34462 ft | 490 kts | 64° |
| 2026-04-20 20:10 | 51.83240 | 0.73718 | 34900 ft | 485 kts | 62° |
| 2026-04-20 20:10 | 51.84618 | 0.78695 | 35315 ft | 483 kts | 63° |
| 2026-04-20 20:10 | 51.85957 | 0.83666 | 35680 ft | 482 kts | 63° |
| 2026-04-20 20:11 | 51.87268 | 0.88672 | 36030 ft | 482 kts | 64° |
| 2026-04-20 20:11 | 51.88551 | 0.93664 | 36410 ft | 480 kts | 65° |
| 2026-04-20 20:11 | 51.89822 | 0.98645 | 36797 ft | 478 kts | 65° |
| 2026-04-20 20:11 | 51.91089 | 1.03631 | 37153 ft | 477 kts | 65° |
| 2026-04-20 20:12 | 51.92349 | 1.08593 | 37482 ft | 477 kts | 65° |
| 2026-04-20 20:12 | 51.93608 | 1.13550 | 37823 ft | 476 kts | 65° |
| 2026-04-20 20:12 | 51.94867 | 1.18512 | 38190 ft | 474 kts | 65° |
| 2026-04-20 20:13 | 51.97352 | 1.28326 | 38832 ft | 473 kts | 66° |
| 2026-04-20 20:13 | 51.98613 | 1.33321 | 39105 ft | 472 kts | 66° |
| 2026-04-20 20:13 | 51.99842 | 1.38197 | 39299 ft | 473 kts | 66° |
| 2026-04-20 20:13 | 52.01093 | 1.43174 | 39286 ft | 477 kts | 66° |
| 2026-04-20 20:14 | 52.03608 | 1.53210 | 39303 ft | 483 kts | 66° |
| 2026-04-20 20:14 | 52.06138 | 1.63358 | 39293 ft | 486 kts | 66° |
| 2026-04-20 20:15 | 52.08669 | 1.73557 | 39295 ft | 487 kts | 66° |
| 2026-04-20 20:15 | 52.11193 | 1.83780 | 39286 ft | 487 kts | 66° |
| 2026-04-20 20:16 | 52.13706 | 1.93999 | 39288 ft | 485 kts | 66° |
| 2026-04-20 20:16 | 52.16199 | 2.04185 | 39285 ft | 484 kts | 66° |
| 2026-04-20 20:17 | 52.18664 | 2.14304 | 39282 ft | 483 kts | 66° |
| 2026-04-20 20:17 | 52.21148 | 2.24548 | 39284 ft | 482 kts | 66° |
| 2026-04-20 20:18 | 52.23582 | 2.34635 | 39284 ft | 481 kts | 66° |
| 2026-04-20 20:18 | 52.26026 | 2.44807 | 39281 ft | 481 kts | 66° |
| 2026-04-20 20:19 | 52.28456 | 2.54967 | 39280 ft | 481 kts | 67° |
| 2026-04-20 20:19 | 52.30865 | 2.65163 | 39279 ft | 481 kts | 69° |
| 2026-04-20 20:20 | 52.32825 | 2.75644 | 39285 ft | 482 kts | 72° |
| 2026-04-20 20:20 | 52.34604 | 2.86242 | 39282 ft | 483 kts | 72° |
| 2026-04-20 20:21 | 52.36428 | 2.96817 | 39279 ft | 483 kts | 72° |
| 2026-04-20 20:21 | 52.38281 | 3.07387 | 39275 ft | 483 kts | 72° |
| 2026-04-20 20:22 | 52.40136 | 3.17962 | 39268 ft | 483 kts | 71° |
| 2026-04-20 20:22 | 52.42255 | 3.28350 | 39262 ft | 481 kts | 69° |
| 2026-04-20 20:23 | 52.44489 | 3.38691 | 39264 ft | 482 kts | 69° |
| 2026-04-20 20:23 | 52.46686 | 3.49054 | 39261 ft | 482 kts | 69° |
| 2026-04-20 20:24 | 52.48849 | 3.59462 | 39262 ft | 482 kts | 69° |
| 2026-04-20 20:24 | 52.50632 | 3.68111 | 39269 ft | 481 kts | 69° |
| 2026-04-20 20:25 | 52.53118 | 3.80228 | 39274 ft | 481 kts | 69° |
| 2026-04-20 20:25 | 52.55244 | 3.90646 | 39273 ft | 480 kts | 69° |
| 2026-04-20 20:26 | 52.57356 | 4.01042 | 39273 ft | 480 kts | 70° |
| 2026-04-20 20:26 | 52.59107 | 4.09700 | 39277 ft | 479 kts | 69° |
| 2026-04-20 20:27 | 52.61198 | 4.20083 | 39267 ft | 478 kts | 70° |
| 2026-04-20 20:27 | 52.63468 | 4.30371 | 39278 ft | 477 kts | 66° |
| 2026-04-20 20:28 | 52.65903 | 4.40498 | 39279 ft | 476 kts | 66° |
| 2026-04-20 20:28 | 52.68331 | 4.50641 | 39275 ft | 475 kts | 67° |
| 2026-04-20 20:29 | 52.70719 | 4.60797 | 39280 ft | 475 kts | 67° |
| 2026-04-20 20:29 | 52.73079 | 4.70946 | 39284 ft | 474 kts | 67° |
| 2026-04-20 20:30 | 52.75429 | 4.81119 | 39285 ft | 474 kts | 67° |
| 2026-04-20 20:30 | 52.77770 | 4.91295 | 39285 ft | 474 kts | 67° |
| 2026-04-20 20:31 | 52.80097 | 5.01461 | 39282 ft | 474 kts | 67° |
| 2026-04-20 20:31 | 52.82421 | 5.11652 | 39282 ft | 474 kts | 68° |
| 2026-04-20 20:32 | 52.84737 | 5.21851 | 39279 ft | 473 kts | 68° |
| 2026-04-20 20:32 | 52.87037 | 5.32042 | 39274 ft | 473 kts | 68° |
| 2026-04-20 20:33 | 52.89315 | 5.42188 | 39266 ft | 473 kts | 68° |
| 2026-04-20 20:33 | 52.91600 | 5.52406 | 39262 ft | 473 kts | 68° |
| 2026-04-20 20:34 | 52.93875 | 5.62628 | 39270 ft | 472 kts | 68° |
| 2026-04-20 20:34 | 52.96136 | 5.72838 | 39272 ft | 472 kts | 68° |
| 2026-04-20 20:35 | 52.98390 | 5.83070 | 39274 ft | 472 kts | 68° |
| 2026-04-20 20:35 | 53.00631 | 5.93289 | 39274 ft | 471 kts | 68° |
| 2026-04-20 20:36 | 53.02865 | 6.03529 | 39270 ft | 471 kts | 69° |
| 2026-04-20 20:36 | 53.05088 | 6.13774 | 39258 ft | 471 kts | 69° |
| 2026-04-20 20:37 | 53.07305 | 6.24038 | 39259 ft | 471 kts | 69° |
| 2026-04-20 20:37 | 53.09507 | 6.34282 | 39262 ft | 470 kts | 69° |
| 2026-04-20 20:38 | 53.11697 | 6.44525 | 39267 ft | 470 kts | 69° |
| 2026-04-20 20:38 | 53.13878 | 6.54773 | 39267 ft | 469 kts | 69° |
| 2026-04-20 20:39 | 53.16061 | 6.65017 | 39265 ft | 469 kts | 67° |
| 2026-04-20 20:39 | 53.18931 | 6.74729 | 39260 ft | 468 kts | 66° |
| 2026-04-20 20:40 | 53.20500 | 6.85268 | 39272 ft | 471 kts | 79° |
| 2026-04-20 20:40 | 53.20993 | 6.90668 | 39039 ft | 470 kts | 80° |
| 2026-04-20 20:40 | 53.21472 | 6.96039 | 38811 ft | 466 kts | 80° |
| 2026-04-20 20:41 | 53.21951 | 7.01364 | 38539 ft | 463 kts | 80° |
| 2026-04-20 20:41 | 53.22436 | 7.06664 | 38279 ft | 462 kts | 79° |
| 2026-04-20 20:41 | 53.22928 | 7.11968 | 38021 ft | 462 kts | 79° |
| 2026-04-20 20:41 | 53.23423 | 7.17264 | 37765 ft | 461 kts | 80° |
| 2026-04-20 20:42 | 53.23919 | 7.22554 | 37508 ft | 461 kts | 79° |
| 2026-04-20 20:42 | 53.24412 | 7.27827 | 37251 ft | 460 kts | 80° |
| 2026-04-20 20:42 | 53.24904 | 7.33109 | 36689 ft | 459 kts | 80° |
| 2026-04-20 20:42 | 53.25389 | 7.38356 | 36024 ft | 456 kts | 80° |
| 2026-04-20 20:43 | 53.25863 | 7.43495 | 35197 ft | 455 kts | 81° |
| 2026-04-20 20:43 | 53.26347 | 7.48781 | 34390 ft | 450 kts | 81° |
| 2026-04-20 20:43 | 53.26815 | 7.53917 | 33442 ft | 445 kts | 81° |
| 2026-04-20 20:43 | 53.27275 | 7.59001 | 32564 ft | 439 kts | 81° |
| 2026-04-20 20:44 | 53.27726 | 7.64004 | 31699 ft | 433 kts | 81° |
| 2026-04-20 20:44 | 53.28163 | 7.68879 | 30832 ft | 427 kts | 81° |
| 2026-04-20 20:44 | 53.28604 | 7.73824 | 29827 ft | 422 kts | 81° |
| 2026-04-20 20:44 | 53.29027 | 7.78586 | 28794 ft | 417 kts | 81° |
| 2026-04-20 20:45 | 53.29447 | 7.83345 | 27768 ft | 411 kts | 81° |
| 2026-04-20 20:45 | 53.29861 | 7.88046 | 26731 ft | 410 kts | 81° |
| 2026-04-20 20:45 | 53.30288 | 7.92913 | 25838 ft | 424 kts | 81° |
| 2026-04-20 20:45 | 53.30718 | 7.97834 | 25006 ft | 441 kts | 81° |
| 2026-04-20 20:46 | 53.31153 | 8.02847 | 24144 ft | 429 kts | 81° |
| 2026-04-20 20:46 | 53.31571 | 8.07697 | 23253 ft | 415 kts | 81° |
| 2026-04-20 20:46 | 53.31974 | 8.12392 | 22447 ft | 401 kts | 81° |
| 2026-04-20 20:46 | 53.32361 | 8.16935 | 21684 ft | 389 kts | 81° |
| 2026-04-20 20:47 | 53.32736 | 8.21341 | 20944 ft | 379 kts | 81° |
| 2026-04-20 20:47 | 53.33106 | 8.25708 | 20220 ft | 384 kts | 81° |
| 2026-04-20 20:47 | 53.33493 | 8.30279 | 19435 ft | 408 kts | 81° |
| 2026-04-20 20:47 | 53.33887 | 8.34956 | 18612 ft | 399 kts | 81° |
| 2026-04-20 20:48 | 53.34264 | 8.39473 | 17758 ft | 384 kts | 81° |
| 2026-04-20 20:48 | 53.34623 | 8.43800 | 17002 ft | 369 kts | 81° |
| 2026-04-20 20:48 | 53.34970 | 8.48002 | 16280 ft | 360 kts | 81° |
| 2026-04-20 20:48 | 53.35307 | 8.52097 | 15576 ft | 351 kts | 82° |
| 2026-04-20 20:49 | 53.35645 | 8.56199 | 14872 ft | 366 kts | 82° |
| 2026-04-20 20:49 | 53.35992 | 8.60446 | 14115 ft | 368 kts | 82° |
| 2026-04-20 20:49 | 53.36335 | 8.64657 | 13321 ft | 362 kts | 82° |
| 2026-04-20 20:49 | 53.36671 | 8.68802 | 12597 ft | 355 kts | 82° |
| 2026-04-20 20:50 | 53.36994 | 8.72811 | 11906 ft | 343 kts | 82° |
| 2026-04-20 20:50 | 53.37310 | 8.76750 | 11237 ft | 339 kts | 82° |
| 2026-04-20 20:50 | 53.37615 | 8.80570 | 11120 ft | 328 kts | 82° |
| 2026-04-20 20:50 | 53.37919 | 8.84386 | 10967 ft | 333 kts | 82° |
| 2026-04-20 20:51 | 53.38218 | 8.88153 | 10813 ft | 319 kts | 82° |
| 2026-04-20 20:51 | 53.38502 | 8.91748 | 10678 ft | 303 kts | 82° |
| 2026-04-20 20:51 | 53.38770 | 8.95160 | 10550 ft | 289 kts | 82° |
| 2026-04-20 20:51 | 53.39025 | 8.98417 | 10442 ft | 276 kts | 82° |
| 2026-04-20 20:52 | 53.39269 | 9.01535 | 10333 ft | 264 kts | 82° |
| 2026-04-20 20:52 | 53.39502 | 9.04529 | 10181 ft | 255 kts | 82° |
| 2026-04-20 20:52 | 53.39729 | 9.07457 | 9893 ft | 252 kts | 82° |
| 2026-04-20 20:52 | 53.39953 | 9.10346 | 9596 ft | 248 kts | 82° |
| 2026-04-20 20:53 | 53.40173 | 9.13201 | 9311 ft | 246 kts | 82° |
| 2026-04-20 20:53 | 53.40387 | 9.15988 | 9029 ft | 243 kts | 82° |
| 2026-04-20 20:53 | 53.40601 | 9.18779 | 8743 ft | 240 kts | 82° |
| 2026-04-20 20:53 | 53.40816 | 9.21583 | 8464 ft | 239 kts | 82° |
| 2026-04-20 20:54 | 53.41022 | 9.24298 | 8191 ft | 237 kts | 82° |
| 2026-04-20 20:54 | 53.41229 | 9.27028 | 7916 ft | 235 kts | 82° |
| 2026-04-20 20:54 | 53.41435 | 9.29739 | 7654 ft | 234 kts | 82° |
| 2026-04-20 20:54 | 53.41638 | 9.32434 | 7374 ft | 233 kts | 82° |
| 2026-04-20 20:55 | 53.41837 | 9.35081 | 7116 ft | 234 kts | 83° |
| 2026-04-20 20:55 | 53.42046 | 9.37869 | 6846 ft | 240 kts | 83° |
| 2026-04-20 20:55 | 53.42255 | 9.40658 | 6555 ft | 241 kts | 82° |
| 2026-04-20 20:55 | 53.42462 | 9.43440 | 6259 ft | 239 kts | 83° |
| 2026-04-20 20:56 | 53.42664 | 9.46154 | 5992 ft | 230 kts | 82° |
| 2026-04-20 20:56 | 53.42859 | 9.48785 | 5578 ft | 228 kts | 82° |
| 2026-04-20 20:56 | 53.43052 | 9.51398 | 5216 ft | 223 kts | 82° |
| 2026-04-20 20:56 | 53.43233 | 9.53863 | 5053 ft | 210 kts | 82° |
| 2026-04-20 20:57 | 53.43402 | 9.56175 | 4943 ft | 204 kts | 82° |
| 2026-04-20 20:57 | 53.43605 | 9.58563 | 4865 ft | 199 kts | 74° |
| 2026-04-20 20:57 | 53.44316 | 9.60528 | 4794 ft | 198 kts | 53° |
| 2026-04-20 20:57 | 53.45176 | 9.62348 | 4715 ft | 200 kts | 54° |
| 2026-04-20 20:58 | 53.46055 | 9.64212 | 4521 ft | 206 kts | 53° |
| 2026-04-20 20:58 | 53.46957 | 9.66079 | 4300 ft | 205 kts | 53° |
| 2026-04-20 20:58 | 53.47850 | 9.67911 | 4055 ft | 200 kts | 53° |
| 2026-04-20 20:58 | 53.48716 | 9.69679 | 3854 ft | 191 kts | 53° |
| 2026-04-20 20:59 | 53.49537 | 9.71353 | 3662 ft | 180 kts | 53° |
| 2026-04-20 20:59 | 53.50312 | 9.72932 | 3463 ft | 170 kts | 54° |
| 2026-04-20 20:59 | 53.51042 | 9.74420 | 3279 ft | 161 kts | 54° |
| 2026-04-20 20:59 | 53.51740 | 9.75845 | 3104 ft | 160 kts | 54° |
| 2026-04-20 21:00 | 53.52447 | 9.77288 | 3038 ft | 159 kts | 55° |
| 2026-04-20 21:00 | 53.53152 | 9.78727 | 2892 ft | 161 kts | 55° |
| 2026-04-20 21:00 | 53.53860 | 9.80167 | 2674 ft | 154 kts | 56° |
| 2026-04-20 21:00 | 53.54507 | 9.81482 | 2459 ft | 139 kts | 56° |
| 2026-04-20 21:01 | 53.55104 | 9.82696 | 2277 ft | 132 kts | 57° |
| 2026-04-20 21:01 | 53.55686 | 9.83887 | 2112 ft | 132 kts | 58° |
| 2026-04-20 21:01 | 53.56236 | 9.85004 | 1925 ft | 116 kts | 57° |
| 2026-04-20 21:01 | 53.56717 | 9.85981 | 1750 ft | 104 kts | 58° |
| 2026-04-20 21:02 | 53.57175 | 9.86923 | 1577 ft | 105 kts | 56° |
| 2026-04-20 21:02 | 53.57639 | 9.87866 | 1467 ft | 105 kts | 55° |
| 2026-04-20 21:02 | 53.58113 | 9.88790 | 1323 ft | 107 kts | 55° |
| 2026-04-20 21:02 | 53.58594 | 9.89778 | 1185 ft | 108 kts | 56° |
| 2026-04-20 21:03 | 53.59069 | 9.90782 | 1002 ft | 113 kts | 53° |
| 2026-04-20 21:03 | 53.59581 | 9.91812 | 848 ft | 115 kts | 52° |
| 2026-04-20 21:03 | 53.60092 | 9.92868 | 678 ft | 116 kts | 51° |
| 2026-04-20 21:03 | 53.60611 | 9.93921 | 527 ft | 118 kts | 50° |
| 2026-04-20 21:04 | 53.61145 | 9.94997 | 360 ft | 121 kts | 51° |
| 2026-04-20 21:04 | 53.61690 | 9.96104 | 160 ft | 122 kts | 50° |
| 2026-04-20 21:04 | 53.62220 | 9.97175 | 54 ft | 115 kts | 50° |
| 2026-04-20 21:04 | 53.62642 | 9.98030 | 48 ft | 54 kts | 50° |
| 2026-04-20 21:05 | 53.62765 | 9.98298 | 49 ft | 15 kts | 79° |
| 2026-04-20 21:05 | 53.62710 | 9.98405 | 50 ft | 12 kts | 141° |
| 2026-04-20 21:05 | 53.62654 | 9.98468 | 50 ft | 6 kts | 174° |
| 2026-04-20 21:05 | 53.62612 | 9.98398 | 50 ft | 14 kts | 233° |
| 2026-04-20 21:06 | 53.62537 | 9.98244 | 49 ft | 19 kts | 227° |
| 2026-04-20 21:06 | 53.62439 | 9.98097 | 49 ft | 19 kts | 220° |
| 2026-04-20 21:06 | 53.62353 | 9.97935 | 49 ft | 17 kts | 230° |
| 2026-04-20 21:06 | 53.62286 | 9.97800 | 49 ft | 14 kts | 230° |
| 2026-04-20 21:07 | 53.62224 | 9.97711 | 50 ft | 9 kts | 173° |
| 2026-04-20 21:07 | 53.62175 | 9.97771 | 50 ft | 9 kts | 139° |
| 2026-04-20 21:07 | 53.62125 | 9.97843 | 50 ft | 10 kts | 138° |
| 2026-04-20 21:07 | 53.62129 | 9.97938 | 50 ft | 9 kts | 52° |
| 2026-04-20 21:08 | 53.62147 | 9.97975 | 49 ft | 0 kts | 51° |